createdAt,value
2023-08-29T00:00:18.310Z,0.80
2023-08-29T00:02:46.246Z,1.00
2023-08-29T00:05:14.320Z,0.43
2023-08-29T00:07:43.923Z,0.55
2023-08-29T00:10:12.630Z,0.60
2023-08-29T00:12:42.303Z,0.30
2023-08-29T00:15:11.828Z,0.20
2023-08-29T00:17:40.417Z,0.30
2023-08-29T00:20:11.467Z,0.30
2023-08-29T00:22:39.449Z,3.53
2023-08-29T00:25:09.841Z,7.88
2023-08-29T00:27:37.744Z,0.75
2023-08-29T00:30:06.631Z,0.30
2023-08-29T00:32:34.721Z,0.20
2023-08-29T00:35:02.820Z,0.63
2023-08-29T00:37:30.892Z,0.82
2023-08-29T00:39:58.800Z,0.15
2023-08-29T00:42:28.076Z,0.30
2023-08-29T00:44:55.987Z,0.20
2023-08-29T00:47:24.034Z,0.20
2023-08-29T00:49:52.586Z,0.40
2023-08-29T00:52:21.113Z,0.20
2023-08-29T00:54:49.415Z,1.65
2023-08-29T00:57:17.361Z,0.20
2023-08-29T00:59:46.768Z,0.20
2023-08-29T01:02:14.700Z,0.20
2023-08-29T01:04:42.640Z,0.22
2023-08-29T01:07:10.725Z,0.30
2023-08-29T01:09:40.626Z,0.20
2023-08-29T01:12:17.379Z,0.20
2023-08-29T01:14:53.330Z,0.20
2023-08-29T01:17:28.086Z,0.60
2023-08-29T01:19:56.970Z,1.08
2023-08-29T01:22:42.329Z,0.20
2023-08-29T01:25:18.106Z,0.20
2023-08-29T01:27:48.478Z,0.20
2023-08-29T01:30:17.172Z,0.28
2023-08-29T01:32:46.886Z,0.10
2023-08-29T01:35:16.544Z,0.38
2023-08-29T01:37:44.478Z,0.20
2023-08-29T01:40:13.007Z,1.85
2023-08-29T01:42:40.910Z,0.63
2023-08-29T01:45:11.345Z,0.22
2023-08-29T01:47:39.415Z,2.05
2023-08-29T01:50:09.499Z,0.38
2023-08-29T01:52:37.766Z,0.30
2023-08-29T01:55:06.320Z,0.30
2023-08-29T01:57:36.872Z,0.30
2023-08-29T02:00:06.420Z,0.20
2023-08-29T02:02:35.757Z,0.20
2023-08-29T02:05:03.699Z,0.50
2023-08-29T02:07:31.652Z,0.20
2023-08-29T02:09:59.599Z,0.88
2023-08-29T02:12:27.557Z,0.30
2023-08-29T02:14:55.471Z,0.40
2023-08-29T02:17:23.377Z,0.30
2023-08-29T02:19:52.772Z,0.30
2023-08-29T02:22:20.720Z,0.30
2023-08-29T02:24:49.442Z,0.20
2023-08-29T02:27:17.369Z,0.20
2023-08-29T02:29:45.292Z,0.22
2023-08-29T02:32:13.190Z,0.20
2023-08-29T02:34:41.124Z,0.30
2023-08-29T02:37:10.478Z,0.50
2023-08-29T02:39:38.402Z,0.60
2023-08-29T02:42:06.794Z,0.30
2023-08-29T02:44:34.692Z,0.30
2023-08-29T02:47:02.632Z,0.20
2023-08-29T02:49:32.157Z,0.25
2023-08-29T02:52:00.064Z,0.30
2023-08-29T02:54:29.443Z,0.20
2023-08-29T02:56:58.056Z,0.40
2023-08-29T02:59:27.412Z,1.25
2023-08-29T03:01:55.370Z,0.20
2023-08-29T03:04:23.317Z,0.10
2023-08-29T03:06:53.292Z,0.20
2023-08-29T03:09:21.307Z,0.20
2023-08-29T03:11:50.682Z,0.20
2023-08-29T03:14:18.584Z,0.20
2023-08-29T03:16:46.743Z,0.40
2023-08-29T03:19:14.804Z,0.20
2023-08-29T03:21:42.769Z,0.20
2023-08-29T03:24:10.716Z,0.30
2023-08-29T03:26:38.617Z,0.20
2023-08-29T03:29:07.906Z,0.40
2023-08-29T03:31:36.015Z,0.20
2023-08-29T03:34:04.333Z,0.20
2023-08-29T03:36:32.666Z,0.30
2023-08-29T03:39:00.606Z,0.32
2023-08-29T03:41:28.601Z,0.20
2023-08-29T03:43:56.546Z,0.20
2023-08-29T03:46:25.854Z,0.73
2023-08-29T03:48:54.059Z,4.90
2023-08-29T03:51:21.982Z,0.50
2023-08-29T03:53:49.958Z,0.68
2023-08-29T03:56:19.177Z,0.30
2023-08-29T03:58:47.752Z,0.20
2023-08-29T04:01:15.679Z,8.45
2023-08-29T04:03:45.174Z,0.32
2023-08-29T04:06:13.194Z,0.50
2023-08-29T04:08:41.104Z,0.40
2023-08-29T04:11:09.059Z,0.22
2023-08-29T04:13:37.215Z,1.55
2023-08-29T04:16:05.456Z,0.20
2023-08-29T04:18:34.424Z,0.47
2023-08-29T04:21:03.840Z,0.20
2023-08-29T04:23:31.776Z,0.30
2023-08-29T04:26:01.509Z,0.20
2023-08-29T04:28:29.487Z,0.30
2023-08-29T04:30:57.704Z,0.30
2023-08-29T04:33:26.624Z,0.20
2023-08-29T04:35:55.836Z,0.20
2023-08-29T04:38:25.156Z,0.22
2023-08-29T04:40:55.071Z,0.75
2023-08-29T04:43:23.017Z,0.20
2023-08-29T04:45:52.222Z,0.20
2023-08-29T04:48:20.184Z,0.30
2023-08-29T04:50:48.510Z,0.20
2023-08-29T04:53:16.436Z,0.30
2023-08-29T04:55:45.707Z,0.20
2023-08-29T04:58:13.943Z,0.20
2023-08-29T05:00:41.889Z,0.30
2023-08-29T05:03:09.967Z,0.20
2023-08-29T05:05:39.159Z,0.38
2023-08-29T05:08:08.270Z,0.20
2023-08-29T05:10:36.410Z,0.40
2023-08-29T05:13:06.114Z,0.20
2023-08-29T05:15:34.320Z,0.30
2023-08-29T05:18:02.395Z,0.20
2023-08-29T05:20:30.463Z,0.20
2023-08-29T05:22:58.397Z,0.63
2023-08-29T05:25:26.324Z,0.32
2023-08-29T05:27:54.230Z,0.45
2023-08-29T05:30:23.750Z,0.20
2023-08-29T05:32:51.733Z,1.17
2023-08-29T05:35:19.810Z,0.20
2023-08-29T05:37:47.741Z,0.20
2023-08-29T05:40:15.844Z,0.98
2023-08-29T05:42:43.754Z,0.68
2023-08-29T05:45:12.291Z,0.22
2023-08-29T05:47:41.631Z,10.52
2023-08-29T05:50:10.424Z,0.52
2023-08-29T05:52:38.747Z,1.13
2023-08-29T05:55:07.958Z,0.40
2023-08-29T05:57:35.897Z,0.55
2023-08-29T06:00:06.426Z,0.40
2023-08-29T06:02:34.921Z,0.40
2023-08-29T06:05:07.437Z,0.20
2023-08-29T06:07:35.451Z,0.20
2023-08-29T06:10:03.776Z,0.20
2023-08-29T06:12:31.733Z,0.20
2023-08-29T06:14:59.672Z,0.30
2023-08-29T06:17:28.074Z,0.20
2023-08-29T06:19:55.993Z,0.30
2023-08-29T06:22:26.457Z,0.20
2023-08-29T06:24:56.079Z,0.57
2023-08-29T06:27:24.106Z,0.33
2023-08-29T06:29:52.014Z,0.30
2023-08-29T06:32:20.114Z,0.20
2023-08-29T06:34:48.023Z,0.33
2023-08-29T06:37:17.519Z,0.30
2023-08-29T06:39:46.804Z,0.88
2023-08-29T06:42:14.723Z,0.20
2023-08-29T06:44:42.650Z,0.30
2023-08-29T07:07:15.906Z,1.60
2023-08-29T07:09:44.527Z,1.13
2023-08-29T07:12:12.458Z,1.55
2023-08-29T07:14:40.388Z,1.10
2023-08-29T07:17:10.526Z,1.58
2023-08-29T07:19:39.776Z,1.05
2023-08-29T07:22:22.790Z,1.55
2023-08-29T07:24:53.960Z,1.20
2023-08-29T07:27:22.189Z,1.50
2023-08-29T07:29:50.123Z,1.50
2023-08-29T07:32:18.882Z,1.10
2023-08-29T07:34:46.821Z,1.10
2023-08-29T07:37:14.788Z,3.92
2023-08-29T07:39:42.698Z,1.10
2023-08-29T07:42:11.992Z,1.40
2023-08-29T07:44:39.897Z,1.40
2023-08-29T07:47:15.756Z,1.80
2023-08-29T07:49:44.376Z,1.60
2023-08-29T07:52:12.564Z,2.45
2023-08-29T07:54:40.731Z,2.17
2023-08-29T07:57:08.712Z,2.90
2023-08-29T07:59:38.009Z,2.20
2023-08-29T08:02:07.055Z,2.20
2023-08-29T08:04:34.980Z,6.53
2023-08-29T08:07:02.939Z,2.60
2023-08-29T08:09:30.894Z,2.75
2023-08-29T08:11:58.851Z,3.00
2023-08-29T08:14:26.763Z,2.70
2023-08-29T08:16:56.072Z,2.90
2023-08-29T08:19:24.055Z,2.90
2023-08-29T08:21:52.722Z,2.97
2023-08-29T08:24:20.708Z,3.88
2023-08-29T08:26:48.669Z,3.40
2023-08-29T08:29:16.586Z,3.20
2023-08-29T08:31:44.542Z,3.60
2023-08-29T08:34:13.976Z,3.78
2023-08-29T08:36:41.903Z,4.10
2023-08-29T08:39:09.840Z,5.10
2023-08-29T08:41:39.408Z,4.07
2023-08-29T08:44:10.621Z,7.95
2023-08-29T08:46:39.198Z,4.40
2023-08-29T08:49:07.762Z,5.00
2023-08-29T08:51:39.861Z,6.60
2023-08-29T08:54:09.003Z,6.95
2023-08-29T08:56:37.936Z,8.30
2023-08-29T08:59:06.817Z,8.70
2023-08-29T09:01:35.338Z,8.80
2023-08-29T09:04:04.241Z,11.25
2023-08-29T09:06:32.567Z,12.55
2023-08-29T09:09:20.200Z,13.20
2023-08-29T09:11:55.080Z,11.60
2023-08-29T09:14:23.659Z,11.13
2023-08-29T09:16:55.300Z,11.45
2023-08-29T09:19:24.022Z,13.38
2023-08-29T09:21:52.251Z,26.23
2023-08-29T09:24:33.304Z,25.08
2023-08-29T09:27:01.350Z,36.40
2023-08-29T09:29:32.423Z,43.50
2023-08-29T09:32:00.820Z,53.67
2023-08-29T09:34:30.368Z,60.08
2023-08-29T09:36:59.624Z,63.22
2023-08-29T09:39:29.167Z,62.70
2023-08-29T09:42:02.529Z,72.47
2023-08-29T09:44:30.901Z,66.20
2023-08-29T09:46:58.912Z,66.78
2023-08-29T09:49:33.507Z,69.88
2023-08-29T09:52:04.178Z,68.65
2023-08-29T09:54:35.313Z,67.88
2023-08-29T09:57:07.923Z,69.53
2023-08-29T09:59:40.476Z,69.72
2023-08-29T10:02:12.175Z,63.95
2023-08-29T10:04:44.892Z,66.47
2023-08-29T10:07:16.974Z,64.93
2023-08-29T10:09:46.699Z,70.78
2023-08-29T10:12:15.017Z,66.88
2023-08-29T10:14:45.182Z,70.65
2023-08-29T10:17:29.583Z,67.55
2023-08-29T10:20:00.633Z,68.93
2023-08-29T10:22:31.802Z,64.93
2023-08-29T10:25:03.684Z,64.32
2023-08-29T10:27:31.983Z,67.00
2023-08-29T10:30:00.163Z,66.75
2023-08-29T10:32:29.651Z,67.25
2023-08-29T10:34:58.798Z,66.18
2023-08-29T10:37:30.177Z,65.88
2023-08-29T10:40:12.456Z,63.92
2023-08-29T10:42:54.499Z,68.38
2023-08-29T10:45:23.774Z,65.35
2023-08-29T10:47:53.184Z,65.32
2023-08-29T10:50:25.515Z,65.75
2023-08-29T10:52:57.588Z,66.28
2023-08-29T10:55:29.440Z,67.82
2023-08-29T10:57:59.661Z,67.57
2023-08-29T11:00:36.457Z,72.72
2023-08-29T11:03:04.795Z,77.00
2023-08-29T11:05:33.223Z,74.90
2023-08-29T11:08:20.669Z,77.88
2023-08-29T11:11:14.942Z,78.20
2023-08-29T11:14:02.414Z,74.13
2023-08-29T11:16:31.793Z,70.72
2023-08-29T11:19:13.255Z,72.80
2023-08-29T11:21:41.638Z,70.35
2023-08-29T11:24:16.439Z,69.85
2023-08-29T11:26:48.303Z,75.55
2023-08-29T11:29:17.280Z,67.28
2023-08-29T11:31:47.432Z,68.63
2023-08-29T11:34:18.508Z,69.75
2023-08-29T11:36:49.352Z,67.93
2023-08-29T11:39:19.908Z,70.00
2023-08-29T11:41:55.739Z,69.93
2023-08-29T11:44:55.521Z,66.38
2023-08-29T11:47:21.591Z,67.97
2023-08-29T11:49:50.834Z,63.92
2023-08-29T11:52:18.971Z,69.85
2023-08-29T11:54:49.290Z,65.22
2023-08-29T11:57:19.137Z,61.65
2023-08-29T11:59:48.621Z,69.20
2023-08-29T12:02:20.004Z,60.60
2023-08-29T12:04:49.339Z,57.38
2023-08-29T12:07:18.599Z,61.20
2023-08-29T12:09:48.375Z,60.13
2023-08-29T12:12:31.906Z,65.50
2023-08-29T12:15:00.899Z,63.85
2023-08-29T12:17:39.433Z,59.58
2023-08-29T12:20:30.816Z,56.53
2023-08-29T12:22:59.080Z,56.80
2023-08-29T12:25:28.080Z,56.97
2023-08-29T12:27:58.210Z,56.25
2023-08-29T12:30:27.008Z,57.33
2023-08-29T12:32:55.223Z,52.60
2023-08-29T12:35:23.388Z,52.58
2023-08-29T12:37:51.357Z,51.88
2023-08-29T12:40:19.380Z,57.78
2023-08-29T12:42:50.278Z,55.40
2023-08-29T12:45:20.904Z,56.45
2023-08-29T12:47:50.438Z,58.45
2023-08-29T12:50:19.226Z,52.75
2023-08-29T12:52:47.198Z,52.70
2023-08-29T12:55:15.316Z,55.97
2023-08-29T12:57:44.249Z,51.40
2023-08-29T13:00:12.953Z,51.33
2023-08-29T13:02:42.449Z,49.90
2023-08-29T13:05:10.729Z,51.08
2023-08-29T13:07:38.673Z,51.33
2023-08-29T13:10:07.310Z,53.05
2023-08-29T13:12:35.887Z,50.72
2023-08-29T13:15:06.550Z,50.80
2023-08-29T13:17:34.789Z,53.63
2023-08-29T13:20:04.145Z,53.15
2023-08-29T13:22:32.417Z,53.85
2023-08-29T13:25:00.418Z,52.83
2023-08-29T13:27:28.381Z,53.28
2023-08-29T13:29:56.296Z,53.00
2023-08-29T13:32:24.253Z,54.17
2023-08-29T13:34:52.239Z,51.35
2023-08-29T13:37:21.661Z,55.53
2023-08-29T13:39:57.049Z,59.33
2023-08-29T13:42:25.269Z,58.75
2023-08-29T13:44:56.866Z,54.85
2023-08-29T13:47:25.014Z,55.50
2023-08-29T13:49:54.470Z,52.65
2023-08-29T13:52:23.780Z,53.47
2023-08-29T13:54:51.814Z,55.05
2023-08-29T13:57:19.761Z,56.65
2023-08-29T13:59:47.671Z,54.42
2023-08-29T14:02:15.599Z,54.08
2023-08-29T14:04:43.560Z,62.35
2023-08-29T14:07:11.936Z,56.13
2023-08-29T14:09:41.217Z,56.15
2023-08-29T14:12:10.192Z,55.80
2023-08-29T14:14:38.156Z,72.35
2023-08-29T14:17:07.104Z,56.13
2023-08-29T14:19:36.426Z,55.97
2023-08-29T14:22:05.498Z,54.58
2023-08-29T14:24:33.547Z,56.15
2023-08-29T14:27:02.845Z,55.45
2023-08-29T14:29:31.494Z,54.00
2023-08-29T14:31:59.485Z,55.95
2023-08-29T14:34:27.540Z,55.65
2023-08-29T14:36:55.918Z,56.00
2023-08-29T14:39:23.870Z,55.35
2023-08-29T14:41:52.124Z,65.15
2023-08-29T14:44:21.488Z,53.75
2023-08-29T14:46:49.703Z,70.05
2023-08-29T14:49:17.670Z,53.65
2023-08-29T14:51:46.154Z,50.90
2023-08-29T14:54:14.113Z,52.15
2023-08-29T14:56:42.690Z,54.20
2023-08-29T14:59:10.603Z,54.13
2023-08-29T15:01:42.079Z,52.97
2023-08-29T15:04:11.140Z,54.22
2023-08-29T15:06:39.280Z,53.03
2023-08-29T15:09:09.065Z,53.33
2023-08-29T15:11:37.358Z,52.80
2023-08-29T15:14:06.656Z,52.78
2023-08-29T15:16:36.169Z,52.72
2023-08-29T15:19:05.829Z,53.13
2023-08-29T15:21:33.785Z,54.47
2023-08-29T15:24:01.727Z,55.03
2023-08-29T15:26:29.644Z,57.03
2023-08-29T15:28:58.227Z,55.05
2023-08-29T15:31:26.247Z,55.25
2023-08-29T15:33:54.217Z,55.70
2023-08-29T15:36:26.473Z,56.80
2023-08-29T15:38:54.497Z,57.63
2023-08-29T15:41:24.076Z,57.50
2023-08-29T15:43:52.005Z,57.30
2023-08-29T15:46:20.506Z,58.65
2023-08-29T15:48:48.459Z,60.53
2023-08-29T15:51:17.131Z,58.13
2023-08-29T15:53:46.493Z,58.45
2023-08-29T15:56:14.482Z,57.88
2023-08-29T15:58:43.067Z,58.90
2023-08-29T16:01:12.063Z,18.70
2023-08-29T16:03:40.170Z,18.90
2023-08-29T16:06:08.242Z,20.40
2023-08-29T16:08:36.999Z,19.20
2023-08-29T16:11:06.289Z,18.50
2023-08-29T16:13:34.225Z,19.27
2023-08-29T16:16:02.185Z,20.27
2023-08-29T16:18:30.074Z,17.05
2023-08-29T16:20:58.022Z,17.00
2023-08-29T16:23:25.950Z,18.25
2023-08-29T16:25:53.996Z,17.98
2023-08-29T16:28:24.386Z,20.23
2023-08-29T16:30:52.508Z,18.13
2023-08-29T16:33:20.516Z,17.95
2023-08-29T16:35:49.215Z,17.92
2023-08-29T16:38:17.175Z,19.00
2023-08-29T16:40:45.078Z,18.98
2023-08-29T16:43:12.999Z,17.52
2023-08-29T16:45:42.289Z,18.00
2023-08-29T16:48:10.632Z,18.02
2023-08-29T16:50:39.888Z,17.50
2023-08-29T16:53:08.619Z,18.02
2023-08-29T16:55:36.563Z,17.63
2023-08-29T16:58:05.064Z,18.23
2023-08-29T17:00:33.457Z,18.52
2023-08-29T17:03:09.255Z,18.55
2023-08-29T17:05:39.483Z,17.95
2023-08-29T17:08:09.064Z,17.80
2023-08-29T17:10:37.862Z,17.50
2023-08-29T17:13:05.868Z,16.25
2023-08-29T17:15:33.817Z,16.50
2023-08-29T17:18:03.312Z,15.77
2023-08-29T17:20:31.347Z,17.98
2023-08-29T17:22:59.296Z,17.17
2023-08-29T17:25:29.313Z,17.10
2023-08-29T17:27:57.255Z,16.80
2023-08-29T17:30:25.519Z,17.15
2023-08-29T17:32:53.581Z,17.10
2023-08-29T17:35:22.885Z,17.30
2023-08-29T17:37:50.889Z,17.67
2023-08-29T17:40:18.957Z,17.10
2023-08-29T17:42:46.893Z,17.23
2023-08-29T17:45:15.246Z,17.73
2023-08-29T17:47:43.226Z,16.65
2023-08-29T17:50:12.173Z,17.10
2023-08-29T17:52:41.554Z,16.30
2023-08-29T17:55:09.830Z,16.45
2023-08-29T17:57:37.761Z,17.33
2023-08-29T18:00:07.030Z,17.20
2023-08-29T18:02:35.020Z,17.50
2023-08-29T18:05:03.030Z,17.27
2023-08-29T18:07:30.984Z,16.50
2023-08-29T18:10:12.159Z,16.80
2023-08-29T18:12:40.642Z,17.30
2023-08-29T18:15:10.173Z,17.20
2023-08-29T18:17:38.716Z,16.60
2023-08-29T18:20:08.219Z,17.40
2023-08-29T18:22:36.879Z,17.00
2023-08-29T18:25:05.415Z,17.50
2023-08-29T18:27:34.741Z,17.50
2023-08-29T18:30:03.823Z,17.73
2023-08-29T18:32:32.976Z,16.80
2023-08-29T18:35:01.164Z,16.80
2023-08-29T18:37:29.372Z,16.92
2023-08-29T18:39:57.851Z,16.42
2023-08-29T18:42:25.899Z,16.60
2023-08-29T18:44:55.189Z,17.20
2023-08-29T18:47:23.158Z,17.30
2023-08-29T18:49:51.158Z,18.30
2023-08-29T18:52:20.680Z,16.25
2023-08-29T18:54:48.605Z,15.55
2023-08-29T18:57:16.550Z,16.00
2023-08-29T18:59:44.674Z,15.65
2023-08-29T19:02:14.230Z,15.77
2023-08-29T19:04:44.032Z,17.45
2023-08-29T19:07:12.067Z,15.60
2023-08-29T19:09:40.282Z,15.40
2023-08-29T19:12:08.476Z,15.23
2023-08-29T19:14:36.862Z,14.80
2023-08-29T19:17:05.317Z,13.95
2023-08-29T19:19:34.608Z,14.48
2023-08-29T19:22:02.640Z,14.50
2023-08-29T19:24:30.618Z,16.00
2023-08-29T19:26:58.581Z,15.70
2023-08-29T19:29:26.502Z,15.15
2023-08-29T19:31:54.403Z,15.07
2023-08-29T19:34:22.338Z,14.07
2023-08-29T19:36:51.591Z,13.05
2023-08-29T19:39:21.785Z,13.18
2023-08-29T19:41:49.698Z,14.55
2023-08-29T19:44:19.038Z,16.00
2023-08-29T19:46:47.395Z,16.20
2023-08-29T19:49:16.107Z,15.00
2023-08-29T19:51:44.663Z,13.98
2023-08-29T19:54:14.212Z,14.80
2023-08-29T19:56:42.212Z,14.45
2023-08-29T19:59:10.271Z,14.50
2023-08-29T20:01:38.211Z,13.95
2023-08-29T20:04:06.846Z,13.00
2023-08-29T20:06:34.806Z,12.77
2023-08-29T20:09:02.776Z,12.80
2023-08-29T20:11:32.083Z,13.77
2023-08-29T20:14:00.157Z,12.38
2023-08-29T20:16:28.154Z,12.38
2023-08-29T20:18:56.464Z,13.27
2023-08-29T20:21:24.437Z,12.65
2023-08-29T20:24:01.547Z,11.88
2023-08-29T20:26:32.446Z,11.38
2023-08-29T20:29:01.141Z,12.40
2023-08-29T20:31:29.343Z,13.13
2023-08-29T20:33:57.259Z,12.77
2023-08-29T20:36:25.195Z,12.65
2023-08-29T20:38:53.100Z,13.10
2023-08-29T20:41:21.370Z,13.40
2023-08-29T20:43:50.763Z,12.88
2023-08-29T20:46:18.918Z,13.88
2023-08-29T20:48:52.176Z,14.95
2023-08-29T20:51:22.507Z,14.75
2023-08-29T20:53:51.096Z,13.48
2023-08-29T20:56:19.037Z,13.05
2023-08-29T20:58:47.154Z,13.98
2023-08-29T21:01:16.562Z,13.30
2023-08-29T21:03:44.878Z,14.60
2023-08-29T21:06:12.941Z,14.73
2023-08-29T21:08:40.861Z,14.93
2023-08-29T21:11:08.844Z,14.70
2023-08-29T21:13:37.117Z,14.00
2023-08-29T21:16:05.319Z,13.73
2023-08-29T21:18:34.644Z,14.35
2023-08-29T21:21:04.718Z,15.02
2023-08-29T21:23:34.666Z,14.98
2023-08-29T21:26:02.627Z,14.23
2023-08-29T21:28:31.313Z,14.25
2023-08-29T21:30:59.967Z,14.02
2023-08-29T21:33:27.875Z,14.45
2023-08-29T21:35:57.130Z,14.18
2023-08-29T21:38:25.058Z,14.45
2023-08-29T21:40:53.114Z,15.15
2023-08-29T21:43:22.559Z,15.50
2023-08-29T21:45:54.932Z,14.73
2023-08-29T21:48:25.395Z,15.57
2023-08-29T21:50:54.258Z,14.60
2023-08-29T21:53:24.372Z,15.65
2023-08-29T21:55:53.562Z,15.57
2023-08-29T21:58:21.529Z,15.80
2023-08-29T22:00:51.931Z,15.40
2023-08-29T22:03:20.747Z,14.57
2023-08-29T22:05:48.761Z,14.02
2023-08-29T22:08:17.081Z,14.45
2023-08-29T22:10:46.406Z,13.95
2023-08-29T22:13:14.445Z,15.68
2023-08-29T22:15:42.603Z,15.60
2023-08-29T22:18:12.479Z,15.75
2023-08-29T22:20:40.856Z,15.13
2023-08-29T22:23:09.121Z,15.60
2023-08-29T22:25:37.524Z,14.48
2023-08-29T22:28:07.564Z,14.63
2023-08-29T22:30:35.893Z,14.63
2023-08-29T22:33:04.791Z,14.13
2023-08-29T22:35:32.899Z,13.98
2023-08-29T22:38:00.823Z,14.10
2023-08-29T22:40:28.761Z,14.57
2023-08-29T22:42:57.246Z,15.40
2023-08-29T22:45:26.694Z,15.40
2023-08-29T22:47:54.661Z,15.60
2023-08-29T22:50:22.658Z,15.30
2023-08-29T22:52:50.619Z,15.05
2023-08-29T22:55:19.958Z,15.07
2023-08-29T22:57:47.877Z,14.45
2023-08-29T23:00:16.941Z,15.18
2023-08-29T23:02:46.314Z,14.63
2023-08-29T23:05:14.304Z,14.63
2023-08-29T23:07:51.244Z,14.90
2023-08-29T23:10:19.511Z,15.10
2023-08-29T23:12:47.766Z,15.10
2023-08-29T23:15:16.326Z,14.63
2023-08-29T23:17:44.452Z,14.20
2023-08-29T23:20:14.419Z,14.18
2023-08-29T23:22:42.326Z,14.10
2023-08-29T23:25:12.060Z,13.80
2023-08-29T23:27:40.021Z,14.20
2023-08-29T23:30:11.439Z,13.90
2023-08-29T23:32:40.385Z,15.15
2023-08-29T23:35:09.181Z,15.57
2023-08-29T23:37:38.467Z,15.55
2023-08-29T23:40:08.339Z,15.80
2023-08-29T23:42:36.416Z,15.00
2023-08-29T23:45:05.131Z,14.10
2023-08-29T23:47:33.148Z,14.30
2023-08-29T23:50:01.121Z,14.38
2023-08-29T23:52:29.046Z,14.43
2023-08-29T23:54:58.324Z,13.75
2023-08-29T23:57:26.457Z,14.38
2023-08-29T23:59:54.380Z,14.50
